NO-0028 weather

CLOSED Vestby Airfield
Vestby, Akershus, Norway

Public forecast

Using degrees Celsius for public forecast. Weather courtesy of forecast.io.

Closest aviation weather report (METAR) to Vestby Airfield

Report is more than 6 hours old.

Closest report is Moss Airport, Rygge, 14.7 nm (27.3 km) S. Retrieved 2020/05/30 13:20 UTC (2 days ago):

ENRY 301320Z 02008KT 330V070 CAVOK 22/06 Q1030

Closest aviation forecast (TAF) to Vestby Airfield

Forecast is more than 12 hours old.

Closest forecast is Moss Airport, Rygge, 14.7 nm (27.3 km) S. Retrieved 2020/05/30 16:54 UTC (1 day ago):

TAF TAF ENRY 301645Z 3016/3112 CNL